sensor_id;sensor_type;location;lat;lon;timestamp;pressure;altitude;pressure_sealevel;temperature;humidity
54936;BME280;40838;50.676;7.838;2023-03-31T00:01:05;97452.94;;;3.52;100.00
54936;BME280;40838;50.676;7.838;2023-03-31T00:03:32;97446.78;;;3.41;100.00
54936;BME280;40838;50.676;7.838;2023-03-31T00:06:03;97443.66;;;3.44;100.00
54936;BME280;40838;50.676;7.838;2023-03-31T00:08:32;97450.81;;;3.49;100.00
54936;BME280;40838;50.676;7.838;2023-03-31T00:11:02;97440.31;;;3.54;100.00
54936;BME280;40838;50.676;7.838;2023-03-31T00:13:30;97451.31;;;3.46;100.00
54936;BME280;40838;50.676;7.838;2023-03-31T00:15:58;97444.19;;;3.46;100.00
54936;BME280;40838;50.676;7.838;2023-03-31T00:18:26;97443.66;;;3.44;100.00
54936;BME280;40838;50.676;7.838;2023-03-31T00:20:54;97438.88;;;3.36;100.00
54936;BME280;40838;50.676;7.838;2023-03-31T00:23:26;97420.78;;;3.45;100.00
54936;BME280;40838;50.676;7.838;2023-03-31T00:25:55;97415.97;;;3.09;100.00
54936;BME280;40838;50.676;7.838;2023-03-31T00:28:21;97422.34;;;3.14;100.00
54936;BME280;40838;50.676;7.838;2023-03-31T00:30:48;97416.31;;;3.13;100.00
54936;BME280;40838;50.676;7.838;2023-03-31T00:33:16;97409.25;;;3.24;100.00
54936;BME280;40838;50.676;7.838;2023-03-31T00:35:43;97402.63;;;3.16;100.00
54936;BME280;40838;50.676;7.838;2023-03-31T00:38:10;97387.84;;;3.90;100.00
54936;BME280;40838;50.676;7.838;2023-03-31T00:40:45;97395.81;;;3.20;100.00
54936;BME280;40838;50.676;7.838;2023-03-31T00:43:25;97388.69;;;3.16;100.00
54936;BME280;40838;50.676;7.838;2023-03-31T00:45:59;97377.63;;;3.14;100.00
54936;BME280;40838;50.676;7.838;2023-03-31T00:48:27;97382.38;;;3.17;100.00
54936;BME280;40838;50.676;7.838;2023-03-31T00:50:55;97364.22;;;3.20;100.00
54936;BME280;40838;50.676;7.838;2023-03-31T00:53:25;97364.25;;;4.15;100.00
54936;BME280;40838;50.676;7.838;2023-03-31T00:55:58;97368.75;;;4.25;100.00
54936;BME280;40838;50.676;7.838;2023-03-31T00:58:30;97369.22;;;3.59;100.00
54936;BME280;40838;50.676;7.838;2023-03-31T01:00:59;97362.44;;;3.26;100.00
54936;BME280;40838;50.676;7.838;2023-03-31T01:03:27;97352.97;;;3.25;100.00
54936;BME280;40838;50.676;7.838;2023-03-31T01:05:56;97351.31;;;4.14;100.00
54936;BME280;40838;50.676;7.838;2023-03-31T01:08:26;97348.94;;;4.12;100.00
54936;BME280;40838;50.676;7.838;2023-03-31T01:10:57;97330.56;;;4.28;100.00
54936;BME280;40838;50.676;7.838;2023-03-31T01:13:26;97329.69;;;4.12;100.00
54936;BME280;40838;50.676;7.838;2023-03-31T01:15:54;97324.22;;;4.29;100.00
54936;BME280;40838;50.676;7.838;2023-03-31T01:18:21;97333.22;;;4.43;100.00
54936;BME280;40838;50.676;7.838;2023-03-31T01:21:10;97325.50;;;4.21;100.00
54936;BME280;40838;50.676;7.838;2023-03-31T01:27:01;97306.94;;;3.80;100.00
54936;BME280;40838;50.676;7.838;2023-03-31T01:29:53;97312.19;;;3.80;100.00
54936;BME280;40838;50.676;7.838;2023-03-31T01:35:53;97304.84;;;3.87;100.00
54936;BME280;40838;50.676;7.838;2023-03-31T01:38:49;97303.59;;;3.42;100.00
54936;BME280;40838;50.676;7.838;2023-03-31T01:41:22;97311.31;;;3.17;100.00
54936;BME280;40838;50.676;7.838;2023-03-31T01:43:59;97304.44;;;3.11;100.00
54936;BME280;40838;50.676;7.838;2023-03-31T01:46:30;97293.44;;;3.19;100.00
54936;BME280;40838;50.676;7.838;2023-03-31T01:49:00;97287.72;;;3.32;100.00
54936;BME280;40838;50.676;7.838;2023-03-31T01:51:33;97282.13;;;3.23;100.00
54936;BME280;40838;50.676;7.838;2023-03-31T01:54:07;97275.84;;;3.24;100.00
54936;BME280;40838;50.676;7.838;2023-03-31T01:56:39;97276.94;;;3.34;100.00
54936;BME280;40838;50.676;7.838;2023-03-31T01:59:11;97266.94;;;3.36;100.00
54936;BME280;40838;50.676;7.838;2023-03-31T02:01:43;97261.75;;;3.51;100.00
54936;BME280;40838;50.676;7.838;2023-03-31T02:04:18;97251.13;;;3.36;100.00
54936;BME280;40838;50.676;7.838;2023-03-31T02:06:49;97246.97;;;3.40;100.00
54936;BME280;40838;50.676;7.838;2023-03-31T02:09:23;97238.47;;;3.32;100.00
54936;BME280;40838;50.676;7.838;2023-03-31T02:11:54;97227.94;;;3.32;100.00
54936;BME280;40838;50.676;7.838;2023-03-31T02:14:25;97229.78;;;3.27;100.00
54936;BME280;40838;50.676;7.838;2023-03-31T02:16:56;97225.84;;;3.29;100.00
54936;BME280;40838;50.676;7.838;2023-03-31T02:19:30;97222.19;;;3.36;100.00
54936;BME280;40838;50.676;7.838;2023-03-31T02:21:58;97217.94;;;4.23;100.00
54936;BME280;40838;50.676;7.838;2023-03-31T02:24:27;97224.81;;;4.24;100.00
54936;BME280;40838;50.676;7.838;2023-03-31T02:27:01;97213.97;;;4.20;100.00
54936;BME280;40838;50.676;7.838;2023-03-31T02:29:31;97210.84;;;4.18;100.00
54936;BME280;40838;50.676;7.838;2023-03-31T02:32:03;97195.53;;;4.26;100.00
54936;BME280;40838;50.676;7.838;2023-03-31T02:34:34;97201.88;;;4.09;100.00
54936;BME280;40838;50.676;7.838;2023-03-31T02:37:01;97187.38;;;4.22;100.00
54936;BME280;40838;50.676;7.838;2023-03-31T02:39:33;97188.97;;;4.28;100.00
54936;BME280;40838;50.676;7.838;2023-03-31T02:42:02;97173.41;;;4.06;100.00
54936;BME280;40838;50.676;7.838;2023-03-31T02:44:32;97177.94;;;4.41;100.00
54936;BME280;40838;50.676;7.838;2023-03-31T02:46:59;97165.75;;;4.56;100.00
54936;BME280;40838;50.676;7.838;2023-03-31T02:49:26;97167.31;;;4.11;100.00
54936;BME280;40838;50.676;7.838;2023-03-31T02:52:19;97149.41;;;4.23;100.00
54936;BME280;40838;50.676;7.838;2023-03-31T02:55:22;97135.44;;;4.07;100.00
54936;BME280;40838;50.676;7.838;2023-03-31T02:58:21;97121.22;;;4.29;100.00
54936;BME280;40838;50.676;7.838;2023-03-31T03:01:10;97111.72;;;4.22;100.00
54936;BME280;40838;50.676;7.838;2023-03-31T03:03:50;97099.84;;;4.05;100.00
54936;BME280;40838;50.676;7.838;2023-03-31T03:06:33;97084.84;;;4.31;100.00
54936;BME280;40838;50.676;7.838;2023-03-31T03:09:20;97075.34;;;4.25;100.00
54936;BME280;40838;50.676;7.838;2023-03-31T03:11:57;97062.44;;;4.28;100.00
54936;BME280;40838;50.676;7.838;2023-03-31T03:14:35;97068.75;;;4.22;100.00
54936;BME280;40838;50.676;7.838;2023-03-31T03:17:07;97072.72;;;4.09;100.00
54936;BME280;40838;50.676;7.838;2023-03-31T03:19:36;97065.84;;;4.08;100.00
54936;BME280;40838;50.676;7.838;2023-03-31T03:22:03;97064.53;;;4.06;100.00
54936;BME280;40838;50.676;7.838;2023-03-31T03:24:30;97041.84;;;4.20;100.00
54936;BME280;40838;50.676;7.838;2023-03-31T03:26:59;97040.28;;;4.24;100.00
54936;BME280;40838;50.676;7.838;2023-03-31T03:29:26;97044.25;;;4.21;100.00
54936;BME280;40838;50.676;7.838;2023-03-31T03:31:54;97041.06;;;4.25;100.00
54936;BME280;40838;50.676;7.838;2023-03-31T03:34:21;97034.47;;;4.17;100.00
54936;BME280;40838;50.676;7.838;2023-03-31T03:36:50;97032.13;;;4.10;100.00
54936;BME280;40838;50.676;7.838;2023-03-31T03:39:16;97024.22;;;4.00;100.00
54936;BME280;40838;50.676;7.838;2023-03-31T03:41:43;97032.94;;;4.01;100.00
54936;BME280;40838;50.676;7.838;2023-03-31T03:44:11;97032.91;;;4.31;100.00
54936;BME280;40838;50.676;7.838;2023-03-31T03:46:38;97027.91;;;3.94;100.00
54936;BME280;40838;50.676;7.838;2023-03-31T03:49:06;97017.63;;;4.18;100.00
54936;BME280;40838;50.676;7.838;2023-03-31T03:51:32;96985.22;;;4.12;100.00
54936;BME280;40838;50.676;7.838;2023-03-31T03:54:00;96981.78;;;4.12;100.00
54936;BME280;40838;50.676;7.838;2023-03-31T03:56:27;96996.53;;;4.28;100.00
54936;BME280;40838;50.676;7.838;2023-03-31T03:58:54;96984.06;;;4.44;100.00
54936;BME280;40838;50.676;7.838;2023-03-31T04:01:21;96984.84;;;4.50;100.00
54936;BME280;40838;50.676;7.838;2023-03-31T04:03:48;96993.38;;;4.16;100.00
54936;BME280;40838;50.676;7.838;2023-03-31T04:06:16;96994.41;;;4.15;100.00
54936;BME280;40838;50.676;7.838;2023-03-31T04:08:43;96983.09;;;4.19;100.00
54936;BME280;40838;50.676;7.838;2023-03-31T04:11:12;96977.28;;;4.17;100.00
54936;BME280;40838;50.676;7.838;2023-03-31T04:13:39;96972.25;;;4.36;100.00
54936;BME280;40838;50.676;7.838;2023-03-31T04:16:06;96977.13;;;4.69;100.00
54936;BME280;40838;50.676;7.838;2023-03-31T04:18:33;96973.63;;;4.08;100.00
54936;BME280;40838;50.676;7.838;2023-03-31T04:21:02;96979.66;;;4.14;100.00
54936;BME280;40838;50.676;7.838;2023-03-31T04:23:31;96961.47;;;4.33;100.00
54936;BME280;40838;50.676;7.838;2023-03-31T04:25:58;96963.31;;;4.12;100.00
54936;BME280;40838;50.676;7.838;2023-03-31T04:28:25;96962.66;;;4.56;100.00
54936;BME280;40838;50.676;7.838;2023-03-31T04:30:59;96957.47;;;4.40;100.00
54936;BME280;40838;50.676;7.838;2023-03-31T04:33:25;96950.66;;;4.19;100.00
54936;BME280;40838;50.676;7.838;2023-03-31T04:35:52;96943.00;;;4.17;100.00
54936;BME280;40838;50.676;7.838;2023-03-31T04:38:20;96936.25;;;4.66;100.00
54936;BME280;40838;50.676;7.838;2023-03-31T04:40:50;96922.41;;;4.40;100.00
54936;BME280;40838;50.676;7.838;2023-03-31T04:43:18;96927.97;;;4.23;100.00
54936;BME280;40838;50.676;7.838;2023-03-31T04:45:46;96922.31;;;4.60;100.00
54936;BME280;40838;50.676;7.838;2023-03-31T04:48:13;96930.09;;;4.21;100.00
54936;BME280;40838;50.676;7.838;2023-03-31T04:50:39;96914.03;;;4.17;100.00
54936;BME280;40838;50.676;7.838;2023-03-31T04:53:06;96914.28;;;4.21;100.00
54936;BME280;40838;50.676;7.838;2023-03-31T04:55:33;96913.22;;;4.17;100.00
54936;BME280;40838;50.676;7.838;2023-03-31T04:58:02;96906.34;;;4.26;100.00
54936;BME280;40838;50.676;7.838;2023-03-31T05:00:29;96908.81;;;4.02;100.00
54936;BME280;40838;50.676;7.838;2023-03-31T05:02:56;96912.72;;;4.15;100.00
54936;BME280;40838;50.676;7.838;2023-03-31T05:05:22;96904.53;;;4.16;100.00
54936;BME280;40838;50.676;7.838;2023-03-31T05:07:49;96908.56;;;3.98;100.00
54936;BME280;40838;50.676;7.838;2023-03-31T05:10:16;96904.31;;;4.13;100.00
54936;BME280;40838;50.676;7.838;2023-03-31T05:12:43;96894.53;;;4.13;100.00
54936;BME280;40838;50.676;7.838;2023-03-31T05:15:11;96894.84;;;3.96;100.00
54936;BME280;40838;50.676;7.838;2023-03-31T05:17:38;96895.38;;;4.04;100.00
54936;BME280;40838;50.676;7.838;2023-03-31T05:20:06;96878.50;;;3.99;100.00
54936;BME280;40838;50.676;7.838;2023-03-31T05:22:35;96870.41;;;3.86;100.00
54936;BME280;40838;50.676;7.838;2023-03-31T05:25:02;96872.91;;;4.27;100.00
54936;BME280;40838;50.676;7.838;2023-03-31T05:27:30;96865.09;;;3.96;100.00
54936;BME280;40838;50.676;7.838;2023-03-31T05:29:57;96868.81;;;3.80;100.00
54936;BME280;40838;50.676;7.838;2023-03-31T05:32:25;96848.19;;;4.07;100.00
54936;BME280;40838;50.676;7.838;2023-03-31T05:34:52;96855.66;;;3.80;100.00
54936;BME280;40838;50.676;7.838;2023-03-31T05:37:22;96851.72;;;3.77;100.00
54936;BME280;40838;50.676;7.838;2023-03-31T05:39:49;96847.00;;;3.69;100.00
54936;BME280;40838;50.676;7.838;2023-03-31T05:42:16;96857.53;;;3.64;100.00
54936;BME280;40838;50.676;7.838;2023-03-31T05:44:43;96831.44;;;3.77;100.00
54936;BME280;40838;50.676;7.838;2023-03-31T05:47:10;96828.03;;;3.62;100.00
54936;BME280;40838;50.676;7.838;2023-03-31T05:49:38;96809.66;;;3.57;100.00
54936;BME280;40838;50.676;7.838;2023-03-31T05:52:05;96792.50;;;3.59;100.00
54936;BME280;40838;50.676;7.838;2023-03-31T05:54:32;96786.19;;;3.60;100.00
54936;BME280;40838;50.676;7.838;2023-03-31T05:56:59;96782.19;;;3.68;100.00
54936;BME280;40838;50.676;7.838;2023-03-31T05:59:26;96798.31;;;3.56;100.00
54936;BME280;40838;50.676;7.838;2023-03-31T06:01:53;96787.47;;;3.68;100.00
54936;BME280;40838;50.676;7.838;2023-03-31T06:04:20;96779.09;;;3.56;100.00
54936;BME280;40838;50.676;7.838;2023-03-31T06:06:48;96773.81;;;3.66;100.00
54936;BME280;40838;50.676;7.838;2023-03-31T06:09:15;96764.13;;;3.51;100.00
54936;BME280;40838;50.676;7.838;2023-03-31T06:11:43;96769.31;;;3.71;100.00
54936;BME280;40838;50.676;7.838;2023-03-31T06:14:10;96756.72;;;3.53;100.00
54936;BME280;40838;50.676;7.838;2023-03-31T06:16:37;96777.81;;;3.48;100.00
54936;BME280;40838;50.676;7.838;2023-03-31T06:19:04;96786.75;;;3.47;100.00
54936;BME280;40838;50.676;7.838;2023-03-31T06:21:31;96781.00;;;3.45;100.00
54936;BME280;40838;50.676;7.838;2023-03-31T06:23:59;96774.31;;;3.68;100.00
54936;BME280;40838;50.676;7.838;2023-03-31T06:26:26;96755.38;;;3.66;100.00
54936;BME280;40838;50.676;7.838;2023-03-31T06:28:53;96752.81;;;3.45;100.00
54936;BME280;40838;50.676;7.838;2023-03-31T06:31:22;96743.28;;;3.54;100.00
54936;BME280;40838;50.676;7.838;2023-03-31T06:33:49;96726.66;;;3.64;100.00
54936;BME280;40838;50.676;7.838;2023-03-31T06:36:18;96722.53;;;3.43;100.00
54936;BME280;40838;50.676;7.838;2023-03-31T06:38:46;96714.53;;;3.68;100.00
54936;BME280;40838;50.676;7.838;2023-03-31T06:41:15;96722.22;;;3.54;100.00
54936;BME280;40838;50.676;7.838;2023-03-31T06:43:42;96723.44;;;3.77;100.00
54936;BME280;40838;50.676;7.838;2023-03-31T06:46:09;96714.75;;;3.77;100.00
54936;BME280;40838;50.676;7.838;2023-03-31T06:48:36;96701.69;;;3.57;100.00
54936;BME280;40838;50.676;7.838;2023-03-31T06:51:04;96695.66;;;3.51;100.00
54936;BME280;40838;50.676;7.838;2023-03-31T06:53:32;96706.03;;;3.82;100.00
54936;BME280;40838;50.676;7.838;2023-03-31T06:55:59;96697.47;;;4.00;100.00
54936;BME280;40838;50.676;7.838;2023-03-31T06:58:27;96688.59;;;3.91;100.00
54936;BME280;40838;50.676;7.838;2023-03-31T07:00:54;96697.53;;;3.40;100.00
54936;BME280;40838;50.676;7.838;2023-03-31T07:03:21;96694.34;;;3.48;100.00
54936;BME280;40838;50.676;7.838;2023-03-31T07:05:49;96687.44;;;3.63;100.00
54936;BME280;40838;50.676;7.838;2023-03-31T07:08:17;96679.66;;;3.87;100.00
54936;BME280;40838;50.676;7.838;2023-03-31T07:10:44;96690.06;;;3.63;100.00
54936;BME280;40838;50.676;7.838;2023-03-31T07:13:13;96675.94;;;3.48;100.00
54936;BME280;40838;50.676;7.838;2023-03-31T07:15:41;96671.75;;;3.42;100.00
54936;BME280;40838;50.676;7.838;2023-03-31T07:18:08;96677.63;;;3.73;100.00
54936;BME280;40838;50.676;7.838;2023-03-31T07:20:37;96663.97;;;3.71;100.00
54936;BME280;40838;50.676;7.838;2023-03-31T07:23:04;96673.56;;;3.91;100.00
54936;BME280;40838;50.676;7.838;2023-03-31T07:25:31;96664.47;;;4.13;100.00
54936;BME280;40838;50.676;7.838;2023-03-31T07:27:58;96660.59;;;4.39;100.00
54936;BME280;40838;50.676;7.838;2023-03-31T07:30:26;96649.41;;;4.18;100.00
54936;BME280;40838;50.676;7.838;2023-03-31T07:32:54;96644.16;;;4.13;100.00
54936;BME280;40838;50.676;7.838;2023-03-31T07:35:21;96652.34;;;4.46;100.00
54936;BME280;40838;50.676;7.838;2023-03-31T07:37:49;96649.91;;;4.20;100.00
54936;BME280;40838;50.676;7.838;2023-03-31T07:40:19;96644.50;;;4.41;100.00
54936;BME280;40838;50.676;7.838;2023-03-31T07:42:46;96645.16;;;4.28;100.00
54936;BME280;40838;50.676;7.838;2023-03-31T07:45:14;96632.59;;;4.97;100.00
54936;BME280;40838;50.676;7.838;2023-03-31T07:47:42;96641.03;;;4.46;100.00
54936;BME280;40838;50.676;7.838;2023-03-31T07:50:11;96653.44;;;4.06;100.00
54936;BME280;40838;50.676;7.838;2023-03-31T07:52:38;96642.59;;;4.47;100.00
54936;BME280;40838;50.676;7.838;2023-03-31T07:55:06;96645.91;;;4.86;100.00
54936;BME280;40838;50.676;7.838;2023-03-31T07:57:34;96646.66;;;4.34;100.00
54936;BME280;40838;50.676;7.838;2023-03-31T08:00:01;96654.53;;;4.39;100.00
54936;BME280;40838;50.676;7.838;2023-03-31T08:02:37;96632.56;;;5.64;100.00
54936;BME280;40838;50.676;7.838;2023-03-31T08:05:05;96640.72;;;4.76;100.00
54936;BME280;40838;50.676;7.838;2023-03-31T08:07:34;96635.41;;;5.29;100.00
54936;BME280;40838;50.676;7.838;2023-03-31T08:10:02;96633.53;;;4.82;100.00
54936;BME280;40838;50.676;7.838;2023-03-31T08:12:30;96626.53;;;4.96;100.00
54936;BME280;40838;50.676;7.838;2023-03-31T08:14:56;96617.41;;;4.88;100.00
54936;BME280;40838;50.676;7.838;2023-03-31T08:17:23;96618.09;;;4.70;100.00
54936;BME280;40838;50.676;7.838;2023-03-31T08:19:50;96617.97;;;4.85;100.00
54936;BME280;40838;50.676;7.838;2023-03-31T08:22:17;96627.88;;;4.70;100.00
54936;BME280;40838;50.676;7.838;2023-03-31T08:24:45;96625.56;;;5.35;100.00
54936;BME280;40838;50.676;7.838;2023-03-31T08:27:12;96625.56;;;5.35;100.00
54936;BME280;40838;50.676;7.838;2023-03-31T08:29:39;96631.19;;;4.80;100.00
54936;BME280;40838;50.676;7.838;2023-03-31T08:32:06;96624.41;;;6.17;100.00
54936;BME280;40838;50.676;7.838;2023-03-31T08:34:33;96624.56;;;6.07;100.00
54936;BME280;40838;50.676;7.838;2023-03-31T08:37:00;96611.59;;;6.84;100.00
54936;BME280;40838;50.676;7.838;2023-03-31T08:39:27;96613.72;;;6.08;100.00
54936;BME280;40838;50.676;7.838;2023-03-31T08:41:58;96619.34;;;5.45;100.00
54936;BME280;40838;50.676;7.838;2023-03-31T08:44:31;96623.66;;;5.17;100.00
54936;BME280;40838;50.676;7.838;2023-03-31T08:47:02;96616.50;;;5.17;100.00
54936;BME280;40838;50.676;7.838;2023-03-31T08:49:41;96608.28;;;5.80;100.00
54936;BME280;40838;50.676;7.838;2023-03-31T08:52:12;96607.38;;;7.11;100.00
54936;BME280;40838;50.676;7.838;2023-03-31T08:54:42;96610.03;;;7.97;100.00
54936;BME280;40838;50.676;7.838;2023-03-31T08:57:16;96613.69;;;8.33;100.00
54936;BME280;40838;50.676;7.838;2023-03-31T08:59:45;96601.34;;;8.05;100.00
54936;BME280;40838;50.676;7.838;2023-03-31T09:02:19;96604.50;;;6.52;100.00
54936;BME280;40838;50.676;7.838;2023-03-31T09:04:57;96599.34;;;6.88;100.00
54936;BME280;40838;50.676;7.838;2023-03-31T09:07:33;96594.50;;;7.18;100.00
54936;BME280;40838;50.676;7.838;2023-03-31T09:10:17;96599.06;;;6.30;100.00
54936;BME280;40838;50.676;7.838;2023-03-31T09:12:52;96588.53;;;7.12;100.00
54936;BME280;40838;50.676;7.838;2023-03-31T09:15:25;96578.69;;;7.77;100.00
54936;BME280;40838;50.676;7.838;2023-03-31T09:17:52;96576.75;;;8.45;100.00
54936;BME280;40838;50.676;7.838;2023-03-31T09:20:23;96575.72;;;8.23;100.00
54936;BME280;40838;50.676;7.838;2023-03-31T09:22:57;96575.09;;;6.95;100.00
54936;BME280;40838;50.676;7.838;2023-03-31T09:25:30;96568.78;;;7.46;100.00
54936;BME280;40838;50.676;7.838;2023-03-31T09:28:02;96570.13;;;7.57;100.00
54936;BME280;40838;50.676;7.838;2023-03-31T09:30:32;96557.22;;;8.63;100.00
54936;BME280;40838;50.676;7.838;2023-03-31T09:33:08;96543.78;;;9.60;100.00
54936;BME280;40838;50.676;7.838;2023-03-31T09:35:37;96541.28;;;10.46;100.00
54936;BME280;40838;50.676;7.838;2023-03-31T09:38:03;96537.63;;;10.21;100.00
54936;BME280;40838;50.676;7.838;2023-03-31T09:40:30;96530.84;;;11.51;100.00
54936;BME280;40838;50.676;7.838;2023-03-31T09:43:01;96534.72;;;9.79;100.00
54936;BME280;40838;50.676;7.838;2023-03-31T09:45:30;96541.81;;;8.91;100.00
54936;BME280;40838;50.676;7.838;2023-03-31T09:48:01;96535.03;;;10.89;100.00
54936;BME280;40838;50.676;7.838;2023-03-31T09:50:32;96538.69;;;10.28;100.00
54936;BME280;40838;50.676;7.838;2023-03-31T09:53:03;96535.94;;;9.38;100.00
54936;BME280;40838;50.676;7.838;2023-03-31T09:55:39;96538.75;;;8.27;100.00
54936;BME280;40838;50.676;7.838;2023-03-31T09:58:14;96546.75;;;8.67;100.00
54936;BME280;40838;50.676;7.838;2023-03-31T10:00:43;96538.47;;;7.75;100.00
54936;BME280;40838;50.676;7.838;2023-03-31T10:03:21;96535.13;;;7.47;100.00
54936;BME280;40838;50.676;7.838;2023-03-31T10:05:51;96529.97;;;8.89;100.00
54936;BME280;40838;50.676;7.838;2023-03-31T10:08:23;96527.03;;;10.50;100.00
54936;BME280;40838;50.676;7.838;2023-03-31T10:10:53;96528.72;;;10.08;100.00
54936;BME280;40838;50.676;7.838;2023-03-31T10:13:23;96513.72;;;8.99;100.00
54936;BME280;40838;50.676;7.838;2023-03-31T10:15:52;96514.78;;;8.10;100.00
54936;BME280;40838;50.676;7.838;2023-03-31T10:18:20;96512.13;;;8.41;100.00
54936;BME280;40838;50.676;7.838;2023-03-31T10:20:50;96524.47;;;7.24;100.00
54936;BME280;40838;50.676;7.838;2023-03-31T10:23:23;96513.31;;;11.29;100.00
54936;BME280;40838;50.676;7.838;2023-03-31T10:25:52;96511.00;;;11.60;100.00
54936;BME280;40838;50.676;7.838;2023-03-31T10:28:22;96516.97;;;10.94;100.00
54936;BME280;40838;50.676;7.838;2023-03-31T10:30:50;96521.81;;;11.22;100.00
54936;BME280;40838;50.676;7.838;2023-03-31T10:33:21;96528.09;;;10.02;100.00
54936;BME280;40838;50.676;7.838;2023-03-31T10:35:53;96521.44;;;9.70;100.00
54936;BME280;40838;50.676;7.838;2023-03-31T10:38:24;96520.34;;;9.80;100.00
54936;BME280;40838;50.676;7.838;2023-03-31T10:40:54;96519.84;;;9.95;100.00
54936;BME280;40838;50.676;7.838;2023-03-31T10:43:26;96502.91;;;10.08;100.00
54936;BME280;40838;50.676;7.838;2023-03-31T10:45:55;96512.50;;;9.83;100.00
54936;BME280;40838;50.676;7.838;2023-03-31T10:48:24;96502.06;;;10.64;100.00
54936;BME280;40838;50.676;7.838;2023-03-31T10:50:52;96499.91;;;10.19;100.00
54936;BME280;40838;50.676;7.838;2023-03-31T10:53:19;96499.34;;;10.72;100.00
54936;BME280;40838;50.676;7.838;2023-03-31T10:56:03;96496.00;;;12.34;100.00
54936;BME280;40838;50.676;7.838;2023-03-31T10:58:58;96483.97;;;12.41;100.00
54936;BME280;40838;50.676;7.838;2023-03-31T11:01:38;96483.41;;;12.72;100.00
54936;BME280;40838;50.676;7.838;2023-03-31T11:04:28;96475.50;;;12.63;100.00
54936;BME280;40838;50.676;7.838;2023-03-31T11:07:05;96474.69;;;12.01;100.00
54936;BME280;40838;50.676;7.838;2023-03-31T11:09:43;96473.63;;;11.48;100.00
54936;BME280;40838;50.676;7.838;2023-03-31T11:12:17;96468.22;;;11.90;100.00
54936;BME280;40838;50.676;7.838;2023-03-31T11:15:02;96458.38;;;12.40;100.00
54936;BME280;40838;50.676;7.838;2023-03-31T11:17:45;96461.91;;;11.61;100.00
54936;BME280;40838;50.676;7.838;2023-03-31T11:20:22;96465.66;;;11.27;100.00
54936;BME280;40838;50.676;7.838;2023-03-31T11:22:55;96459.16;;;12.16;100.00
54936;BME280;40838;50.676;7.838;2023-03-31T11:25:33;96463.31;;;10.75;100.00
54936;BME280;40838;50.676;7.838;2023-03-31T11:28:25;96462.63;;;9.80;100.00
54936;BME280;40838;50.676;7.838;2023-03-31T11:31:06;96459.03;;;10.62;100.00
54936;BME280;40838;50.676;7.838;2023-03-31T11:33:54;96461.63;;;10.79;100.00
54936;BME280;40838;50.676;7.838;2023-03-31T11:36:26;96458.16;;;11.41;100.00
54936;BME280;40838;50.676;7.838;2023-03-31T11:39:06;96458.19;;;11.54;100.00
54936;BME280;40838;50.676;7.838;2023-03-31T11:41:39;96455.78;;;11.94;100.00
54936;BME280;40838;50.676;7.838;2023-03-31T11:44:10;96452.78;;;11.96;100.00
54936;BME280;40838;50.676;7.838;2023-03-31T11:46:42;96443.56;;;11.06;100.00
54936;BME280;40838;50.676;7.838;2023-03-31T11:49:17;96434.97;;;11.00;100.00
54936;BME280;40838;50.676;7.838;2023-03-31T11:51:50;96432.75;;;10.81;100.00
54936;BME280;40838;50.676;7.838;2023-03-31T11:54:23;96445.69;;;10.32;100.00
54936;BME280;40838;50.676;7.838;2023-03-31T11:56:52;96458.13;;;9.37;100.00
54936;BME280;40838;50.676;7.838;2023-03-31T11:59:21;96451.97;;;9.80;100.00
54936;BME280;40838;50.676;7.838;2023-03-31T12:01:57;96449.78;;;10.29;100.00
54936;BME280;40838;50.676;7.838;2023-03-31T12:04:33;96446.28;;;10.76;100.00
54936;BME280;40838;50.676;7.838;2023-03-31T12:07:03;96438.75;;;11.20;100.00
54936;BME280;40838;50.676;7.838;2023-03-31T12:09:39;96430.69;;;11.62;100.00
54936;BME280;40838;50.676;7.838;2023-03-31T12:12:12;96431.84;;;10.47;100.00
54936;BME280;40838;50.676;7.838;2023-03-31T12:14:46;96436.69;;;10.75;100.00
54936;BME280;40838;50.676;7.838;2023-03-31T12:17:18;96420.88;;;10.99;100.00
54936;BME280;40838;50.676;7.838;2023-03-31T12:19:47;96413.25;;;11.10;100.00
54936;BME280;40838;50.676;7.838;2023-03-31T12:22:18;96413.25;;;11.10;100.00
54936;BME280;40838;50.676;7.838;2023-03-31T12:24:47;96421.75;;;10.62;100.00
54936;BME280;40838;50.676;7.838;2023-03-31T12:27:17;96407.28;;;10.92;100.00
54936;BME280;40838;50.676;7.838;2023-03-31T12:29:55;96408.56;;;11.28;100.00
54936;BME280;40838;50.676;7.838;2023-03-31T12:32:26;96415.22;;;10.80;100.00
54936;BME280;40838;50.676;7.838;2023-03-31T12:34:55;96400.53;;;10.95;100.00
54936;BME280;40838;50.676;7.838;2023-03-31T12:40:34;96393.25;;;11.71;97.23
54936;BME280;40838;50.676;7.838;2023-03-31T12:43:18;96382.41;;;12.00;95.87
54936;BME280;40838;50.676;7.838;2023-03-31T12:45:49;96362.56;;;11.19;98.28
54936;BME280;40838;50.676;7.838;2023-03-31T12:48:47;96361.16;;;11.00;100.00
54936;BME280;40838;50.676;7.838;2023-03-31T12:51:27;96385.38;;;11.08;100.00
54936;BME280;40838;50.676;7.838;2023-03-31T12:54:13;96463.66;;;10.73;100.00
54936;BME280;40838;50.676;7.838;2023-03-31T12:57:04;96472.44;;;9.97;100.00
54936;BME280;40838;50.676;7.838;2023-03-31T12:59:39;96456.06;;;10.25;100.00
54936;BME280;40838;50.676;7.838;2023-03-31T13:02:22;96446.56;;;10.45;100.00
54936;BME280;40838;50.676;7.838;2023-03-31T13:04:51;96446.34;;;9.64;100.00
54936;BME280;40838;50.676;7.838;2023-03-31T13:07:41;96428.84;;;9.63;100.00
54936;BME280;40838;50.676;7.838;2023-03-31T13:10:26;96427.56;;;8.48;100.00
54936;BME280;40838;50.676;7.838;2023-03-31T13:12:59;96415.53;;;11.54;96.85
54936;BME280;40838;50.676;7.838;2023-03-31T13:15:28;96415.47;;;13.66;84.25
54936;BME280;40838;50.676;7.838;2023-03-31T13:17:57;96405.13;;;14.12;80.70
54936;BME280;40838;50.676;7.838;2023-03-31T13:20:34;96415.06;;;14.27;85.91
54936;BME280;40838;50.676;7.838;2023-03-31T13:23:05;96409.66;;;14.59;81.55
54936;BME280;40838;50.676;7.838;2023-03-31T13:25:43;96397.06;;;14.59;78.59
54936;BME280;40838;50.676;7.838;2023-03-31T13:28:26;96387.69;;;14.69;79.18